createdAt,value
2022-12-15T00:00:04.782Z,94764.59
2022-12-15T00:01:22.082Z,94765.44
2022-12-15T00:02:39.525Z,94768.84
2022-12-15T00:03:57.130Z,94754.47
2022-12-15T00:05:18.111Z,94753.63
2022-12-15T00:06:35.364Z,94757.81
2022-12-15T00:07:53.861Z,94762.19
2022-12-15T00:09:14.480Z,94762.25
2022-12-15T00:10:32.866Z,94769.06
2022-12-15T00:11:50.376Z,94768.22
2022-12-15T00:13:07.539Z,94767.34
2022-12-15T00:14:30.061Z,94765.69
2022-12-15T00:15:48.139Z,94774.19
2022-12-15T00:17:06.919Z,94770.75
2022-12-15T00:18:24.730Z,94772.34
2022-12-15T00:19:42.188Z,94773.09
2022-12-15T00:20:59.791Z,94773.78
2022-12-15T00:22:16.966Z,94770.38
2022-12-15T00:23:34.547Z,94778.84
2022-12-15T00:24:51.821Z,94781.47
2022-12-15T00:26:09.282Z,94787.47
2022-12-15T00:27:26.503Z,94789.25
2022-12-15T00:28:43.680Z,94795.84
2022-12-15T00:30:04.319Z,94796.69
2022-12-15T00:31:21.708Z,94799.97
2022-12-15T00:32:38.944Z,94801.59
2022-12-15T00:33:56.130Z,94792.38
2022-12-15T00:35:13.708Z,94795.66
2022-12-15T00:36:30.893Z,94791.47
2022-12-15T00:37:49.258Z,94797.28
2022-12-15T00:38:56.987Z,94793.94
2022-12-15T00:40:04.520Z,94804.91
2022-12-15T00:41:10.317Z,94801.63
2022-12-15T00:42:12.456Z,94798.25
2022-12-15T00:43:17.206Z,94792.22
2022-12-15T00:44:20.878Z,94783.88
2022-12-15T00:45:51.953Z,94786.41
2022-12-15T00:46:57.302Z,94789.84
2022-12-15T00:47:59.751Z,94800.88
2022-12-15T00:49:25.229Z,94795.03
2022-12-15T00:50:42.674Z,94803.50
2022-12-15T00:52:00.064Z,94808.59
2022-12-15T00:53:19.045Z,94802.69
2022-12-15T00:54:37.096Z,94801.00
2022-12-15T00:55:54.324Z,94806.06
2022-12-15T00:57:11.655Z,94804.34
2022-12-15T00:58:29.730Z,94806.00
2022-12-15T00:59:47.493Z,94811.00
2022-12-15T01:01:07.939Z,94809.28
2022-12-15T01:02:25.280Z,94813.47
2022-12-15T01:03:43.895Z,94812.63
2022-12-15T01:05:01.265Z,94820.25
2022-12-15T01:06:21.720Z,94817.66
2022-12-15T01:07:39.031Z,94807.50
2022-12-15T01:08:56.621Z,94812.56
2022-12-15T01:10:14.332Z,94812.63
2022-12-15T01:11:31.817Z,94816.81
2022-12-15T01:12:49.366Z,94821.03
2022-12-15T01:14:06.528Z,94824.38
2022-12-15T01:15:24.639Z,94827.75
2022-12-15T01:16:44.536Z,94821.84
2022-12-15T01:18:01.903Z,94819.31
2022-12-15T01:19:20.540Z,94832.81
2022-12-15T01:20:26.418Z,94837.94
2022-12-15T01:21:28.648Z,94840.50
2022-12-15T01:22:35.034Z,94834.59
2022-12-15T01:23:40.968Z,94834.59
2022-12-15T01:24:49.201Z,94848.09
2022-12-15T01:25:52.143Z,94849.75
2022-12-15T01:26:58.046Z,94859.91
2022-12-15T01:28:03.136Z,94849.69
2022-12-15T01:29:10.349Z,94865.78
2022-12-15T01:30:15.206Z,94863.25
2022-12-15T01:31:21.671Z,94867.44
2022-12-15T01:32:27.812Z,94867.53
2022-12-15T01:33:33.104Z,94869.22
2022-12-15T01:34:35.597Z,94870.09
2022-12-15T01:35:40.517Z,94869.19
2022-12-15T01:36:42.920Z,94872.56
2022-12-15T01:37:49.839Z,94869.22
2022-12-15T01:38:54.551Z,94881.91
2022-12-15T01:40:11.869Z,94866.66
2022-12-15T01:41:18.435Z,94866.69
2022-12-15T01:42:20.990Z,94860.78
2022-12-15T01:43:29.526Z,94854.88
2022-12-15T01:44:31.975Z,94858.25
2022-12-15T01:45:59.406Z,94868.38
2022-12-15T01:47:02.636Z,94868.38
2022-12-15T01:48:16.536Z,94869.22
2022-12-15T01:49:26.636Z,94869.28
2022-12-15T01:50:30.301Z,94870.16
2022-12-15T01:51:41.538Z,94871.84
2022-12-15T01:52:44.336Z,94865.16
2022-12-15T01:53:57.438Z,94874.47
2022-12-15T01:54:59.669Z,94887.16
2022-12-15T01:56:07.013Z,94887.09
2022-12-15T01:57:14.185Z,94883.72
2022-12-15T01:58:21.804Z,94880.31
2022-12-15T01:59:29.329Z,94873.50
2022-12-15T02:00:34.501Z,94871.81
2022-12-15T02:01:50.456Z,94871.81
2022-12-15T02:02:53.591Z,94880.25
2022-12-15T02:04:01.102Z,94880.31
2022-12-15T02:05:05.113Z,94880.31
2022-12-15T02:06:11.838Z,94883.72
2022-12-15T02:07:17.072Z,94882.06
2022-12-15T02:08:22.484Z,94872.75
2022-12-15T02:09:30.488Z,94871.88
2022-12-15T02:10:47.057Z,94865.91
2022-12-15T02:12:03.831Z,94873.50
2022-12-15T02:13:16.344Z,94870.09
2022-12-15T02:14:31.756Z,94876.88
2022-12-15T02:15:43.884Z,94875.22
2022-12-15T02:17:04.428Z,94870.16
2022-12-15T02:18:14.218Z,94869.28
2022-12-15T02:19:51.614Z,94863.31
2022-12-15T02:21:01.008Z,94865.09
2022-12-15T02:22:19.831Z,94869.31
2022-12-15T02:24:07.190Z,94866.75
2022-12-15T02:25:29.200Z,94878.59
2022-12-15T02:26:48.907Z,94879.44
2022-12-15T02:28:00.239Z,94888.75
2022-12-15T02:29:21.428Z,94890.44
2022-12-15T02:30:44.921Z,94895.41
2022-12-15T02:31:54.663Z,94896.22
2022-12-15T02:33:18.774Z,94882.66
2022-12-15T02:34:27.384Z,94879.34
2022-12-15T02:35:39.399Z,94886.91
2022-12-15T02:36:44.908Z,94881.88
2022-12-15T02:37:50.777Z,94889.50
2022-12-15T02:38:53.065Z,94884.44
2022-12-15T02:39:57.861Z,94890.38
2022-12-15T02:41:01.128Z,94892.09
2022-12-15T02:42:08.255Z,94887.84
2022-12-15T02:43:11.475Z,94889.50
2022-12-15T02:44:21.327Z,94889.50
2022-12-15T02:45:33.020Z,94888.66
2022-12-15T02:46:48.395Z,94893.75
2022-12-15T02:48:03.228Z,94891.16
2022-12-15T02:49:18.678Z,94891.97
2022-12-15T02:50:39.628Z,94892.03
2022-12-15T02:51:56.044Z,94892.97
2022-12-15T02:53:09.824Z,94892.91
2022-12-15T02:54:36.911Z,94897.97
2022-12-15T02:55:47.399Z,94899.66
2022-12-15T02:57:06.662Z,94904.72
2022-12-15T02:58:16.226Z,94894.59
2022-12-15T02:59:28.559Z,94902.25
2022-12-15T03:00:42.426Z,94909.00
2022-12-15T03:01:53.345Z,94910.72
2022-12-15T03:03:00.645Z,94912.50
2022-12-15T03:04:06.801Z,94906.53
2022-12-15T03:05:13.605Z,94905.66
2022-12-15T03:06:17.528Z,94898.88
2022-12-15T03:07:22.409Z,94908.19
2022-12-15T03:08:25.945Z,94907.25
2022-12-15T03:09:31.234Z,94912.34
2022-12-15T03:10:33.878Z,94907.31
2022-12-15T03:11:40.856Z,94908.97
2022-12-15T03:12:43.545Z,94897.13
2022-12-15T03:13:49.819Z,94902.34
2022-12-15T03:14:52.319Z,94903.94
2022-12-15T03:15:59.674Z,94900.59
2022-12-15T03:17:04.944Z,94900.53
2022-12-15T03:18:13.086Z,94895.41
2022-12-15T03:19:17.765Z,94909.91
2022-12-15T03:20:24.449Z,94899.72
2022-12-15T03:21:28.035Z,94906.44
2022-12-15T03:22:33.045Z,94914.16
2022-12-15T03:23:39.761Z,94916.69
2022-12-15T03:24:41.867Z,94912.44
2022-12-15T03:25:49.751Z,94912.44
2022-12-15T03:26:53.523Z,94909.00
2022-12-15T03:27:58.492Z,94918.34
2022-12-15T03:29:00.822Z,94921.75
2022-12-15T03:30:09.871Z,94919.22
2022-12-15T03:31:15.484Z,94921.75
2022-12-15T03:32:20.412Z,94917.47
2022-12-15T03:33:22.876Z,94919.16
2022-12-15T03:34:28.105Z,94925.94
2022-12-15T03:35:30.518Z,94920.03
2022-12-15T03:36:35.691Z,94923.47
2022-12-15T03:37:37.949Z,94922.66
2022-12-15T03:38:43.237Z,94922.59
2022-12-15T03:39:48.148Z,94918.41
2022-12-15T03:40:55.419Z,94920.06
2022-12-15T03:41:58.035Z,94920.94
2022-12-15T03:43:09.229Z,94917.53
2022-12-15T03:44:13.434Z,94916.63
2022-12-15T03:45:18.773Z,94924.19
2022-12-15T03:46:25.191Z,94922.47
2022-12-15T03:47:30.483Z,94925.13
2022-12-15T03:48:35.469Z,94927.72
2022-12-15T03:49:37.822Z,94926.00
2022-12-15T03:50:44.544Z,94921.00
2022-12-15T03:51:46.869Z,94921.00
2022-12-15T03:52:54.431Z,94929.34
2022-12-15T03:53:56.607Z,94925.19
2022-12-15T03:55:01.472Z,94931.13
2022-12-15T03:56:04.091Z,94932.03
2022-12-15T03:57:10.083Z,94927.72
2022-12-15T03:58:12.448Z,94927.84
2022-12-15T03:59:17.656Z,94927.72
2022-12-15T04:00:23.050Z,94931.16
2022-12-15T04:01:36.627Z,94938.75
2022-12-15T04:02:41.502Z,94938.78
2022-12-15T04:03:47.254Z,94936.25
2022-12-15T04:04:50.518Z,94943.81
2022-12-15T04:05:58.412Z,94942.16
2022-12-15T04:07:00.629Z,94946.41
2022-12-15T04:08:07.561Z,94952.25
2022-12-15T04:09:09.992Z,94948.06
2022-12-15T04:10:16.469Z,94951.41
2022-12-15T04:11:19.399Z,94958.09
2022-12-15T04:12:26.080Z,94963.22
2022-12-15T04:13:29.953Z,94964.09
2022-12-15T04:14:35.749Z,94965.81
2022-12-15T04:15:40.522Z,94969.13
2022-12-15T04:16:48.467Z,94964.94
2022-12-15T04:17:52.574Z,94973.41
2022-12-15T04:19:10.046Z,94970.88
2022-12-15T04:20:15.616Z,94968.34
2022-12-15T04:21:18.127Z,94960.72
2022-12-15T04:22:20.380Z,94959.88
2022-12-15T04:23:26.511Z,94963.22
2022-12-15T04:24:43.607Z,94958.03
2022-12-15T04:26:02.145Z,94969.06
2022-12-15T04:27:19.420Z,94978.34
2022-12-15T04:28:37.318Z,94978.38
2022-12-15T04:29:55.305Z,94980.97
2022-12-15T04:31:14.742Z,94985.22
2022-12-15T04:32:35.108Z,94988.63
2022-12-15T04:33:57.612Z,94984.41
2022-12-15T04:35:15.188Z,94977.66
2022-12-15T04:36:33.089Z,94976.00
2022-12-15T04:37:50.260Z,94979.31
2022-12-15T04:39:07.718Z,94981.03
2022-12-15T04:40:26.407Z,94973.47
2022-12-15T04:41:47.393Z,94971.75
2022-12-15T04:43:06.659Z,94969.22
2022-12-15T04:44:27.610Z,94967.63
2022-12-15T04:45:45.208Z,94965.91
2022-12-15T04:47:02.642Z,94965.09
2022-12-15T04:48:23.466Z,94975.28
2022-12-15T04:49:40.781Z,94985.44
2022-12-15T04:50:58.157Z,94982.94
2022-12-15T04:52:15.336Z,94987.97
2022-12-15T04:53:34.466Z,94982.03
2022-12-15T04:54:52.087Z,94989.63
2022-12-15T04:56:18.275Z,94974.41
2022-12-15T04:57:36.378Z,94977.84
2022-12-15T04:58:53.587Z,94982.06
2022-12-15T05:00:10.746Z,94991.28
2022-12-15T05:01:28.218Z,94986.31
2022-12-15T05:02:45.539Z,94984.50
2022-12-15T05:04:25.899Z,94979.38
2022-12-15T05:05:45.392Z,94980.97
2022-12-15T05:07:02.708Z,94976.03
2022-12-15T05:08:20.378Z,94976.97
2022-12-15T05:09:37.522Z,94975.28
2022-12-15T05:10:54.831Z,94971.09
2022-12-15T05:12:12.627Z,94975.28
2022-12-15T05:13:32.856Z,94973.53
2022-12-15T05:14:50.445Z,94982.84
2022-12-15T05:16:09.301Z,94990.50
2022-12-15T05:17:26.548Z,94992.22
2022-12-15T05:18:43.736Z,94982.84
2022-12-15T05:20:04.022Z,94990.47
2022-12-15T05:21:22.560Z,94984.56
2022-12-15T05:22:39.991Z,94980.47
2022-12-15T05:23:57.332Z,94980.47
2022-12-15T05:25:14.509Z,94977.06
2022-12-15T05:26:31.663Z,94977.94
2022-12-15T05:27:49.188Z,94978.75
2022-12-15T05:29:08.880Z,94978.72
2022-12-15T05:30:26.871Z,94979.59
2022-12-15T05:31:43.998Z,94972.81
2022-12-15T05:32:51.750Z,94976.13
2022-12-15T05:33:57.185Z,94982.94
2022-12-15T05:35:15.900Z,94971.94
2022-12-15T05:36:18.462Z,94976.19
2022-12-15T05:37:24.515Z,94978.75
2022-12-15T05:38:28.498Z,94973.69
2022-12-15T05:39:33.651Z,94966.91
2022-12-15T05:40:36.317Z,94982.13
2022-12-15T05:41:42.058Z,94982.13
2022-12-15T05:42:44.288Z,94983.00
2022-12-15T05:43:57.058Z,94979.59
2022-12-15T05:45:01.881Z,94990.53
2022-12-15T05:46:04.734Z,94988.03
2022-12-15T05:47:12.481Z,94993.97
2022-12-15T05:48:15.142Z,94989.72
2022-12-15T05:49:24.269Z,94993.03
2022-12-15T05:50:33.058Z,95003.19
2022-12-15T05:51:43.623Z,95003.22
2022-12-15T05:52:49.352Z,95006.66
2022-12-15T05:53:54.708Z,95006.63
2022-12-15T05:54:59.647Z,95003.19
2022-12-15T05:56:03.186Z,95000.63
2022-12-15T05:57:07.944Z,94993.88
2022-12-15T05:58:10.163Z,94998.81
2022-12-15T05:59:16.208Z,95002.19
2022-12-15T06:00:19.103Z,94992.09
2022-12-15T06:01:23.975Z,94997.19
2022-12-15T06:02:26.404Z,94991.34
2022-12-15T06:03:32.613Z,94996.41
2022-12-15T06:04:40.052Z,94990.44
2022-12-15T06:05:45.103Z,94985.34
2022-12-15T06:06:52.051Z,94980.31
2022-12-15T06:07:56.339Z,94983.66
2022-12-15T06:09:01.392Z,94985.44
2022-12-15T06:10:04.796Z,94988.84
2022-12-15T06:11:11.363Z,94988.75
2022-12-15T06:12:13.397Z,94989.56
2022-12-15T06:13:18.167Z,94990.47
2022-12-15T06:14:21.428Z,94992.16
2022-12-15T06:15:26.149Z,94993.03
2022-12-15T06:16:28.683Z,94982.84
2022-12-15T06:17:33.729Z,94980.31
2022-12-15T06:18:40.107Z,94973.47
2022-12-15T06:19:46.176Z,94973.41
2022-12-15T06:20:58.255Z,94974.31
2022-12-15T06:22:02.982Z,94987.09
2022-12-15T06:23:05.063Z,94993.00
2022-12-15T06:24:12.048Z,94993.03
2022-12-15T06:25:18.526Z,95000.66
2022-12-15T06:26:23.115Z,95003.22
2022-12-15T06:27:30.124Z,94998.06
2022-12-15T06:28:32.290Z,94998.06
2022-12-15T06:29:38.072Z,95008.19
2022-12-15T06:30:40.313Z,95014.16
2022-12-15T06:31:46.166Z,95010.75
2022-12-15T06:32:49.913Z,95015.06
2022-12-15T06:34:02.115Z,95014.25
2022-12-15T06:35:10.115Z,95013.38
2022-12-15T06:36:18.741Z,95014.25
2022-12-15T06:37:25.458Z,95014.25
2022-12-15T06:38:29.415Z,95028.59
2022-12-15T06:39:34.328Z,95028.59
2022-12-15T06:40:38.236Z,95031.13
2022-12-15T06:41:43.297Z,95026.88
2022-12-15T06:42:45.381Z,95031.13
2022-12-15T06:43:53.569Z,95026.84
2022-12-15T06:45:00.299Z,95015.91
2022-12-15T06:46:03.594Z,95007.44
2022-12-15T06:47:08.670Z,95010.00
2022-12-15T06:48:10.775Z,95021.81
2022-12-15T06:49:16.010Z,95026.84
2022-12-15T06:50:18.068Z,95023.50
2022-12-15T06:55:24.869Z,95010.88
2022-12-15T06:56:33.997Z,95014.25
2022-12-15T06:57:46.356Z,95021.81
2022-12-15T06:58:51.434Z,95020.16
2022-12-15T07:00:00.799Z,95009.19
2022-12-15T07:01:15.509Z,95004.94
2022-12-15T07:02:28.504Z,95004.09
2022-12-15T07:03:32.450Z,95010.06
2022-12-15T07:04:37.822Z,95006.63
2022-12-15T07:05:48.958Z,95010.88
2022-12-15T07:06:54.021Z,95008.31
2022-12-15T07:07:56.623Z,95008.31
2022-12-15T07:09:02.053Z,95015.09
2022-12-15T07:10:05.063Z,95008.31
2022-12-15T07:11:15.498Z,95002.34
2022-12-15T07:12:20.805Z,95008.28
2022-12-15T07:13:24.814Z,95007.44
2022-12-15T07:14:31.847Z,95018.44
2022-12-15T07:15:34.130Z,95021.81
2022-12-15T07:16:39.599Z,95020.06
2022-12-15T07:17:41.771Z,95028.50
2022-12-15T07:18:46.690Z,95019.22
2022-12-15T07:19:49.087Z,95028.50
2022-12-15T07:20:54.328Z,95022.53
2022-12-15T07:21:57.970Z,95014.09
2022-12-15T07:23:07.923Z,95013.22
2022-12-15T07:24:16.327Z,95014.91
2022-12-15T07:25:19.057Z,94997.97
2022-12-15T07:26:27.266Z,95010.63
2022-12-15T07:27:29.817Z,95007.97
2022-12-15T07:28:35.409Z,95018.97
2022-12-15T07:29:40.840Z,95019.84
2022-12-15T07:30:43.535Z,95008.88
2022-12-15T07:31:49.611Z,95020.66
2022-12-15T07:32:52.598Z,95014.72
2022-12-15T07:33:57.506Z,95006.34
2022-12-15T07:35:00.802Z,95011.28
2022-12-15T07:36:08.404Z,95009.59
2022-12-15T07:37:15.323Z,95016.31
2022-12-15T07:38:19.572Z,95017.09
2022-12-15T07:39:24.682Z,95012.84
2022-12-15T07:40:27.300Z,95011.97
2022-12-15T07:41:37.751Z,95006.13
2022-12-15T07:42:40.025Z,95017.94
2022-12-15T07:43:48.485Z,95023.00
2022-12-15T07:44:53.502Z,95029.88
2022-12-15T07:45:55.911Z,95034.81
2022-12-15T07:47:02.235Z,95038.16
2022-12-15T07:48:06.113Z,95035.56
2022-12-15T07:49:13.817Z,95035.69
2022-12-15T07:50:17.420Z,95034.75
2022-12-15T07:51:23.746Z,95047.41
2022-12-15T07:52:28.542Z,95041.47
2022-12-15T07:53:34.802Z,95034.63
2022-12-15T07:54:41.391Z,95032.94
2022-12-15T07:56:06.339Z,95024.38
2022-12-15T07:57:13.237Z,95023.47
2022-12-15T07:58:20.895Z,95023.44
2022-12-15T07:59:27.835Z,95026.75
2022-12-15T08:00:30.377Z,95025.84
2022-12-15T08:01:36.314Z,95032.56
2022-12-15T08:02:43.849Z,95028.38
2022-12-15T08:03:46.733Z,95024.06
2022-12-15T08:04:58.663Z,95027.38
2022-12-15T08:06:05.548Z,95034.00
2022-12-15T08:07:11.737Z,95029.69
2022-12-15T08:08:15.532Z,95026.13
2022-12-15T08:09:21.121Z,95033.75
2022-12-15T08:10:26.486Z,95031.28
2022-12-15T08:11:34.714Z,95048.22
2022-12-15T08:12:40.089Z,95047.28
2022-12-15T08:14:04.076Z,95049.75
2022-12-15T08:15:13.354Z,95058.31
2022-12-15T08:16:15.964Z,95064.94
2022-12-15T08:17:21.674Z,95072.38
2022-12-15T08:18:24.434Z,95075.66
2022-12-15T08:19:30.949Z,95076.38
2022-12-15T08:20:35.759Z,95075.41
2022-12-15T08:21:43.631Z,95073.63
2022-12-15T08:22:45.912Z,95072.63
2022-12-15T08:23:52.301Z,95082.00
2022-12-15T08:24:58.199Z,95076.66
2022-12-15T08:26:03.629Z,95083.38
2022-12-15T08:27:11.133Z,95083.28
2022-12-15T08:28:18.789Z,95086.63
2022-12-15T08:30:46.254Z,95085.59
2022-12-15T08:31:52.153Z,95085.53
2022-12-15T08:32:57.125Z,95086.28
2022-12-15T08:34:01.271Z,95089.78
2022-12-15T08:35:19.924Z,95078.56
2022-12-15T08:36:32.021Z,95079.41
2022-12-15T08:37:37.057Z,95081.94
2022-12-15T08:38:40.122Z,95088.81
2022-12-15T08:39:45.900Z,95086.28
2022-12-15T08:40:48.108Z,95086.47
2022-12-15T08:41:56.147Z,95080.31
2022-12-15T08:43:02.002Z,95082.78
2022-12-15T08:44:10.546Z,95083.31
2022-12-15T08:45:18.027Z,95077.56
2022-12-15T08:46:24.122Z,95076.72
2022-12-15T08:47:29.110Z,95078.06
2022-12-15T08:48:31.692Z,95082.94
2022-12-15T08:49:36.594Z,95076.78
2022-12-15T08:50:38.765Z,95081.06
2022-12-15T08:51:44.160Z,95072.75
2022-12-15T08:53:13.746Z,95073.28
2022-12-15T08:54:15.705Z,95077.41
2022-12-15T08:55:23.620Z,95078.13
2022-12-15T08:56:27.242Z,95083.03
2022-12-15T08:57:32.150Z,95078.28
2022-12-15T08:58:38.390Z,95082.47
2022-12-15T08:59:46.610Z,95067.78
2022-12-15T09:00:53.973Z,95061.03
2022-12-15T09:01:58.976Z,95072.72
2022-12-15T09:03:03.925Z,95074.19
2022-12-15T09:04:06.935Z,95077.66
2022-12-15T09:05:13.944Z,95073.44
2022-12-15T09:06:20.472Z,95069.84
2022-12-15T09:07:27.053Z,95074.78
2022-12-15T09:08:31.183Z,95071.41
2022-12-15T09:09:36.717Z,95075.34
2022-12-15T09:10:40.945Z,95072.22
2022-12-15T09:11:47.137Z,95071.31
2022-12-15T09:12:51.933Z,95078.22
2022-12-15T09:13:54.520Z,95074.63
2022-12-15T09:15:02.001Z,95074.72
2022-12-15T09:16:10.181Z,95076.25
2022-12-15T09:17:16.830Z,95071.00
2022-12-15T09:18:19.263Z,95069.44
2022-12-15T09:19:25.431Z,95073.22
2022-12-15T09:20:27.819Z,95070.81
2022-12-15T09:21:33.965Z,95083.25
2022-12-15T09:22:40.539Z,95079.63
2022-12-15T09:23:43.290Z,95082.06
2022-12-15T09:24:49.818Z,95076.41
2022-12-15T09:25:55.278Z,95074.94
2022-12-15T09:27:01.445Z,95077.13
2022-12-15T09:28:04.043Z,95075.94
2022-12-15T09:29:08.862Z,95079.34
2022-12-15T09:30:19.977Z,95076.72
2022-12-15T09:31:25.744Z,95077.13
2022-12-15T09:32:33.353Z,95075.34
2022-12-15T09:33:39.501Z,95069.25
2022-12-15T09:34:46.965Z,95070.19
2022-12-15T09:35:52.588Z,95064.72
2022-12-15T09:36:57.562Z,95071.19
2022-12-15T09:38:04.109Z,95058.91
2022-12-15T09:39:17.251Z,95057.75
2022-12-15T09:40:23.394Z,95053.13
2022-12-15T09:41:30.428Z,95057.25
2022-12-15T09:42:35.651Z,95041.69
2022-12-15T09:43:47.080Z,95050.50
2022-12-15T09:44:59.695Z,95052.56
2022-12-15T09:46:16.798Z,95049.53
2022-12-15T09:47:33.945Z,95047.19
2022-12-15T09:48:45.010Z,95045.25
2022-12-15T09:49:56.961Z,95051.78
2022-12-15T09:51:04.610Z,95049.47
2022-12-15T09:52:11.863Z,95046.25
2022-12-15T09:53:53.099Z,95043.94
2022-12-15T09:54:47.858Z,95043.72
2022-12-15T09:56:00.497Z,95045.91
2022-12-15T09:57:11.241Z,95045.53
2022-12-15T09:58:26.773Z,95052.13
2022-12-15T09:59:36.239Z,95046.34
2022-12-15T10:00:52.402Z,95043.00
2022-12-15T10:02:22.953Z,95040.38
2022-12-15T10:03:48.309Z,95044.88
2022-12-15T10:05:01.993Z,95039.06
2022-12-15T10:06:16.623Z,95039.88
2022-12-15T10:07:31.455Z,95040.09
2022-12-15T10:08:40.543Z,95036.13
2022-12-15T10:09:49.255Z,95029.84
2022-12-15T10:10:57.651Z,95029.72
2022-12-15T10:12:08.506Z,95026.94
2022-12-15T10:13:18.274Z,95030.69
2022-12-15T10:14:34.238Z,95042.38
2022-12-15T10:15:46.610Z,95045.97
2022-12-15T10:17:07.537Z,95043.31
2022-12-15T10:18:19.314Z,95045.78
2022-12-15T10:19:33.110Z,95047.63
2022-12-15T10:20:43.859Z,95049.59
2022-12-15T10:21:52.641Z,95038.19
2022-12-15T10:23:00.216Z,95046.50
2022-12-15T10:24:31.420Z,95040.34
2022-12-15T10:25:46.334Z,95037.28
2022-12-15T10:27:05.809Z,95032.28
2022-12-15T10:28:30.978Z,95036.19
2022-12-15T10:29:50.718Z,95044.53
2022-12-15T10:31:05.381Z,95045.25
2022-12-15T10:32:23.463Z,95054.25
2022-12-15T10:33:36.149Z,95049.06
2022-12-15T10:34:41.101Z,95057.50
2022-12-15T10:35:49.220Z,95052.34
2022-12-15T10:36:52.678Z,95058.56
2022-12-15T10:38:01.800Z,95058.47
2022-12-15T10:39:04.765Z,95069.47
2022-12-15T10:40:11.976Z,95067.19
2022-12-15T10:41:20.063Z,95067.91
2022-12-15T10:42:27.230Z,95067.00
2022-12-15T10:43:37.701Z,95062.97
2022-12-15T10:44:42.229Z,95063.22
2022-12-15T10:45:48.163Z,95063.28
2022-12-15T10:46:58.773Z,95057.13
2022-12-15T10:48:09.889Z,95057.13
2022-12-15T10:49:26.677Z,95052.84
2022-12-15T10:50:29.260Z,95049.34
2022-12-15T10:51:38.320Z,95045.81
2022-12-15T10:52:45.016Z,95047.66
2022-12-15T10:53:50.613Z,95038.44
2022-12-15T10:54:57.977Z,95045.19
2022-12-15T10:56:01.520Z,95043.22
2022-12-15T10:57:19.691Z,95041.28
2022-12-15T10:58:24.710Z,95032.72
2022-12-15T10:59:34.068Z,95033.50
2022-12-15T11:00:42.089Z,95029.97
2022-12-15T11:01:48.597Z,95034.34
2022-12-15T11:02:55.850Z,95031.78
2022-12-15T11:04:04.316Z,95035.50
2022-12-15T11:05:20.164Z,95032.91
2022-12-15T11:06:27.251Z,95030.13
2022-12-15T11:07:39.646Z,95023.34
2022-12-15T11:08:47.599Z,95012.38
2022-12-15T11:09:53.767Z,95015.94
2022-12-15T11:11:12.851Z,95018.50
2022-12-15T11:12:33.696Z,95013.28
2022-12-15T11:13:39.343Z,95025.50
2022-12-15T11:14:45.005Z,95022.75
2022-12-15T11:15:52.134Z,95017.47
2022-12-15T11:16:59.391Z,95018.28
2022-12-15T11:18:10.976Z,95018.13
2022-12-15T11:19:23.743Z,95018.00
2022-12-15T11:20:33.383Z,95019.09
2022-12-15T11:21:43.031Z,95007.81
2022-12-15T11:22:54.070Z,95011.00
2022-12-15T11:24:07.732Z,95003.50
2022-12-15T11:25:23.765Z,95004.84
2022-12-15T11:26:38.834Z,95002.78
2022-12-15T11:27:47.798Z,95001.16
2022-12-15T11:28:57.247Z,94994.53
2022-12-15T11:30:17.479Z,94986.38
2022-12-15T11:31:26.049Z,94982.59
2022-12-15T11:32:35.432Z,94975.75
2022-12-15T11:33:38.156Z,94979.75
2022-12-15T11:34:48.541Z,94973.81
2022-12-15T11:36:10.001Z,94963.69
2022-12-15T11:37:40.388Z,94971.03
2022-12-15T11:38:51.038Z,94970.97
2022-12-15T11:40:08.458Z,94974.16
2022-12-15T11:41:31.268Z,94970.56
2022-12-15T11:42:52.208Z,94979.53
2022-12-15T11:44:09.685Z,94971.63
2022-12-15T11:45:24.963Z,94987.91
2022-12-15T11:46:33.337Z,94996.78
2022-12-15T11:47:46.321Z,94996.97
2022-12-15T11:49:05.350Z,95000.75
2022-12-15T11:50:31.096Z,94993.31
2022-12-15T11:51:44.682Z,95006.38
2022-12-15T11:53:04.109Z,94994.28
2022-12-15T11:54:20.331Z,94988.81
2022-12-15T11:55:41.222Z,94989.78
2022-12-15T11:56:52.075Z,94982.84
2022-12-15T11:58:22.205Z,94980.03
2022-12-15T11:59:51.059Z,94991.97
2022-12-15T12:01:01.774Z,94978.97
2022-12-15T12:02:30.923Z,94982.06
2022-12-15T12:03:51.597Z,94979.41
2022-12-15T12:05:17.339Z,94984.97
2022-12-15T12:06:33.902Z,94967.94
2022-12-15T12:07:47.474Z,94967.63
2022-12-15T12:09:09.360Z,94957.59
2022-12-15T12:10:30.078Z,94958.34
2022-12-15T12:11:44.403Z,94958.38
2022-12-15T12:12:59.091Z,94959.84
2022-12-15T12:14:24.598Z,94952.94
2022-12-15T12:15:34.515Z,94956.00
2022-12-15T12:26:03.276Z,94928.19
2022-12-15T12:27:23.222Z,94915.88
2022-12-15T12:28:50.649Z,94911.72
2022-12-15T12:30:26.717Z,94915.31
2022-12-15T12:33:30.691Z,94912.38
2022-12-15T12:35:30.847Z,94915.50
2022-12-15T12:36:40.159Z,94907.69
2022-12-15T12:40:01.542Z,94902.22
2022-12-15T12:41:17.118Z,94904.31
2022-12-15T12:42:30.800Z,94902.09
2022-12-15T12:43:43.362Z,94908.69
2022-12-15T12:44:54.371Z,94906.97
2022-12-15T12:46:34.708Z,94908.69
2022-12-15T12:47:52.730Z,94905.56
2022-12-15T12:49:15.075Z,94903.75
2022-12-15T12:50:28.172Z,94908.09
2022-12-15T12:51:40.687Z,94905.09
2022-12-15T12:52:59.909Z,94897.78
2022-12-15T12:54:16.772Z,94896.84
2022-12-15T12:55:47.227Z,94897.59
2022-12-15T12:57:24.906Z,94894.00
2022-12-15T12:58:53.228Z,94898.53
2022-12-15T13:00:03.680Z,94892.44
2022-12-15T13:02:12.286Z,94891.78
2022-12-15T13:03:44.136Z,94888.34
2022-12-15T13:04:55.287Z,94883.59
2022-12-15T13:06:14.668Z,94879.19
2022-12-15T13:07:55.904Z,94875.97
2022-12-15T13:09:22.869Z,94879.31
2022-12-15T13:10:37.687Z,94870.34
2022-12-15T13:12:14.973Z,94865.88
2022-12-15T13:14:07.157Z,94863.00
2022-12-15T13:18:33.351Z,94869.66
2022-12-15T13:20:26.786Z,94862.97
2022-12-15T13:22:02.236Z,94865.00
2022-12-15T13:23:51.625Z,94868.00
2022-12-15T13:24:57.452Z,94856.09
2022-12-15T13:26:26.117Z,94872.78
2022-12-15T13:27:40.808Z,94868.84
2022-12-15T13:28:49.511Z,94874.00
2022-12-15T13:30:12.368Z,94874.31
2022-12-15T13:33:40.169Z,94877.28
2022-12-15T13:34:47.143Z,94874.22
2022-12-15T13:36:02.321Z,94871.78
2022-12-15T13:37:29.773Z,94867.19
2022-12-15T13:39:11.983Z,94862.91
2022-12-15T13:40:55.009Z,94861.31
2022-12-15T13:42:58.274Z,94855.16
2022-12-15T13:44:21.449Z,94856.13
2022-12-15T13:45:59.607Z,94847.56
2022-12-15T13:47:18.539Z,94855.91
2022-12-15T13:48:33.877Z,94844.88
2022-12-15T13:50:01.752Z,94843.72
2022-12-15T13:51:32.813Z,94848.59
2022-12-15T13:53:17.449Z,94854.72
2022-12-15T13:54:19.240Z,94849.69
2022-12-15T13:55:28.056Z,94855.09
2022-12-15T13:57:00.018Z,94843.56
2022-12-15T13:58:07.506Z,94844.81
2022-12-15T13:59:27.769Z,94847.63
2022-12-15T14:00:35.576Z,94847.31
2022-12-15T14:01:54.251Z,94844.81
2022-12-15T14:03:50.988Z,94846.63
2022-12-15T14:05:20.896Z,94846.03
2022-12-15T14:08:27.720Z,94858.44
2022-12-15T14:11:37.146Z,94847.13
2022-12-15T14:12:34.391Z,94840.38
2022-12-15T14:15:26.026Z,94835.53
2022-12-15T14:18:07.508Z,94833.69
2022-12-15T14:19:18.364Z,94834.69
2022-12-15T14:20:27.414Z,94831.97
2022-12-15T14:21:31.378Z,94834.41
2022-12-15T14:22:37.381Z,94831.75
2022-12-15T14:26:58.510Z,94830.66
2022-12-15T14:28:10.585Z,94834.03
2022-12-15T14:29:16.970Z,94840.66
2022-12-15T14:30:29.533Z,94840.75
2022-12-15T14:31:33.155Z,94837.78
2022-12-15T14:32:40.246Z,94845.53
2022-12-15T14:33:51.436Z,94848.19